createdAt,value
2018-08-06T00:01:04.030Z,17.5
2018-08-06T00:02:10.961Z,17.5
2018-08-06T00:03:18.174Z,17.5
2018-08-06T00:04:25.415Z,17.4
2018-08-06T00:05:32.628Z,17.5
2018-08-06T00:06:39.840Z,17.4
2018-08-06T00:07:47.050Z,17.4
2018-08-06T00:08:54.260Z,17.4
2018-08-06T00:10:01.473Z,17.4
2018-08-06T00:11:08.413Z,17.4
2018-08-06T00:12:15.623Z,17.4
2018-08-06T00:13:22.834Z,17.3
2018-08-06T00:14:30.044Z,17.3
2018-08-06T00:15:37.253Z,17.3
2018-08-06T00:16:44.464Z,17.3
2018-08-06T00:17:51.677Z,17.3
2018-08-06T00:18:58.889Z,17.2
2018-08-06T00:20:06.106Z,17.2
2018-08-06T00:21:13.318Z,17.2
2018-08-06T00:22:20.534Z,17.2
2018-08-06T00:23:27.476Z,17.2
2018-08-06T00:24:34.688Z,17.2
2018-08-06T00:25:41.905Z,17.2
2018-08-06T00:26:48.842Z,17.2
2018-08-06T00:27:56.055Z,17.2
2018-08-06T00:29:03.271Z,17.2
2018-08-06T00:30:10.481Z,17.2
2018-08-06T00:31:17.415Z,17.2
2018-08-06T00:32:24.625Z,17.2
2018-08-06T00:33:31.835Z,17.1
2018-08-06T00:34:39.047Z,17.1
2018-08-06T00:35:46.258Z,17.1
2018-08-06T00:36:53.469Z,17.1
2018-08-06T00:38:00.682Z,17.1
2018-08-06T00:39:07.892Z,17.1
2018-08-06T00:40:15.102Z,17.1
2018-08-06T00:41:22.317Z,17.1
2018-08-06T00:42:29.532Z,17.1
2018-08-06T00:43:36.745Z,17
2018-08-06T00:44:43.956Z,17.1
2018-08-06T00:45:51.166Z,17
2018-08-06T00:46:58.376Z,17
2018-08-06T00:48:05.596Z,17.1
2018-08-06T00:49:12.530Z,17
2018-08-06T00:50:19.771Z,17
2018-08-06T00:51:26.705Z,17
2018-08-06T00:52:33.916Z,17
2018-08-06T00:53:41.126Z,16.9
2018-08-06T00:54:48.063Z,16.9
2018-08-06T00:55:55.277Z,16.9
2018-08-06T00:57:02.487Z,16.9
2018-08-06T00:58:09.699Z,16.9
2018-08-06T00:59:16.909Z,16.8
2018-08-06T01:00:24.121Z,16.8
2018-08-06T01:01:31.060Z,16.8
2018-08-06T01:02:38.271Z,16.8
2018-08-06T01:03:45.486Z,16.8
2018-08-06T01:04:52.699Z,16.8
2018-08-06T01:05:59.642Z,16.8
2018-08-06T01:07:06.856Z,16.7
2018-08-06T01:08:14.068Z,16.7
2018-08-06T01:09:21.283Z,16.7
2018-08-06T01:10:28.500Z,16.7
2018-08-06T01:11:35.432Z,16.7
2018-08-06T01:12:42.645Z,16.7
2018-08-06T01:13:49.867Z,16.7
2018-08-06T01:14:57.077Z,16.7
2018-08-06T01:16:04.296Z,16.7
2018-08-06T01:17:11.506Z,16.6
2018-08-06T01:18:18.715Z,16.6
2018-08-06T01:19:25.925Z,16.6
2018-08-06T01:20:33.139Z,16.6
2018-08-06T01:21:40.363Z,16.6
2018-08-06T01:22:47.561Z,16.6
2018-08-06T01:23:54.497Z,16.6
2018-08-06T01:25:01.714Z,16.6
2018-08-06T01:26:08.917Z,16.6
2018-08-06T01:27:16.132Z,16.6
2018-08-06T01:28:23.347Z,16.6
2018-08-06T01:29:30.556Z,16.6
2018-08-06T01:30:37.774Z,16.6
2018-08-06T01:31:44.981Z,16.6
2018-08-06T01:32:52.197Z,16.6
2018-08-06T01:33:59.406Z,16.6
2018-08-06T01:35:06.620Z,16.6
2018-08-06T01:36:13.831Z,16.6
2018-08-06T01:37:21.042Z,16.6
2018-08-06T01:38:28.255Z,16.6
2018-08-06T01:39:35.465Z,16.6
2018-08-06T01:40:42.670Z,16.5
2018-08-06T01:41:49.878Z,16.5
2018-08-06T01:42:57.296Z,16.5
2018-08-06T01:44:04.242Z,16.6
2018-08-06T01:45:11.450Z,16.6
2018-08-06T01:46:18.665Z,16.6
2018-08-06T01:47:25.877Z,16.6
2018-08-06T01:48:33.087Z,16.6
2018-08-06T01:49:40.301Z,16.5
2018-08-06T01:50:47.509Z,16.5
2018-08-06T01:51:54.723Z,16.5
2018-08-06T01:53:01.935Z,16.5
2018-08-06T01:54:09.151Z,16.5
2018-08-06T01:55:16.359Z,16.5
2018-08-06T01:56:23.294Z,16.5
2018-08-06T01:57:30.504Z,16.5
2018-08-06T01:58:37.715Z,16.5
2018-08-06T01:59:44.935Z,16.5
2018-08-06T02:00:52.147Z,16.5
2018-08-06T02:01:59.356Z,16.5
2018-08-06T02:03:06.292Z,16.5
2018-08-06T02:04:13.500Z,16.4
2018-08-06T02:05:20.709Z,16.4
2018-08-06T02:06:27.918Z,16.4
2018-08-06T02:07:35.132Z,16.4
2018-08-06T02:08:42.343Z,16.4
2018-08-06T02:09:49.278Z,16.4
2018-08-06T02:10:56.488Z,16.3
2018-08-06T02:12:03.696Z,16.4
2018-08-06T02:13:10.907Z,16.4
2018-08-06T02:14:17.843Z,16.3
2018-08-06T02:15:25.050Z,16.3
2018-08-06T02:16:32.265Z,16.3
2018-08-06T02:17:39.478Z,16.3
2018-08-06T02:18:46.686Z,16.3
2018-08-06T02:19:53.896Z,16.3
2018-08-06T02:21:01.104Z,16.3
2018-08-06T02:22:08.041Z,16.3
2018-08-06T02:23:15.254Z,16.3
2018-08-06T02:24:22.460Z,16.3
2018-08-06T02:25:29.673Z,16.3
2018-08-06T02:26:36.894Z,16.3
2018-08-06T02:27:44.103Z,16.3
2018-08-06T02:28:51.316Z,16.2
2018-08-06T02:29:58.526Z,16.2
2018-08-06T02:31:05.739Z,16.2
2018-08-06T02:32:12.947Z,16.2
2018-08-06T02:33:20.163Z,16.2
2018-08-06T02:34:27.374Z,16.2
2018-08-06T02:35:34.302Z,16.1
2018-08-06T02:36:41.243Z,16.1
2018-08-06T02:37:48.196Z,16.1
2018-08-06T02:38:55.405Z,16.1
2018-08-06T02:40:02.618Z,16.1
2018-08-06T02:41:09.555Z,16.1
2018-08-06T02:42:16.828Z,16.1
2018-08-06T02:43:24.025Z,16.1
2018-08-06T02:44:31.233Z,16
2018-08-06T02:45:38.169Z,16
2018-08-06T02:46:45.380Z,15.9
2018-08-06T02:47:52.602Z,15.9
2018-08-06T02:48:59.801Z,15.9
2018-08-06T02:50:06.741Z,15.9
2018-08-06T02:51:13.945Z,15.9
2018-08-06T02:52:21.180Z,15.8
2018-08-06T02:53:28.395Z,15.8
2018-08-06T02:54:35.605Z,15.8
2018-08-06T02:55:42.817Z,15.8
2018-08-06T02:56:50.030Z,15.8
2018-08-06T02:57:57.246Z,15.8
2018-08-06T02:59:04.453Z,15.8
2018-08-06T03:00:11.757Z,15.8
2018-08-06T03:01:19.200Z,15.8
2018-08-06T03:02:26.411Z,15.8
2018-08-06T03:03:33.628Z,15.7
2018-08-06T03:04:40.836Z,15.7
2018-08-06T03:05:48.050Z,15.7
2018-08-06T03:06:55.260Z,15.6
2018-08-06T03:08:02.476Z,15.6
2018-08-06T03:09:09.898Z,15.6
2018-08-06T03:10:17.105Z,15.6
2018-08-06T03:11:24.318Z,15.6
2018-08-06T03:12:31.523Z,15.6
2018-08-06T03:13:38.474Z,15.5
2018-08-06T03:14:45.685Z,15.5
2018-08-06T03:15:52.619Z,15.5
2018-08-06T03:16:59.985Z,15.4
2018-08-06T03:18:07.252Z,15.4
2018-08-06T03:19:14.465Z,15.4
2018-08-06T03:20:21.677Z,15.3
2018-08-06T03:21:28.880Z,15.3
2018-08-06T03:22:36.095Z,15.3
2018-08-06T03:23:43.305Z,15.3
2018-08-06T03:24:50.515Z,15.2
2018-08-06T03:25:57.739Z,15.2
2018-08-06T03:27:04.939Z,15.2
2018-08-06T03:28:12.149Z,15.1
2018-08-06T03:29:19.359Z,15.1
2018-08-06T03:30:26.570Z,15.2
2018-08-06T03:31:33.810Z,15.2
2018-08-06T03:32:41.015Z,15.1
2018-08-06T03:33:48.218Z,15.1
2018-08-06T03:34:55.154Z,15.1
2018-08-06T03:36:02.366Z,15.1
2018-08-06T03:37:09.581Z,15.1
2018-08-06T03:38:16.791Z,15.1
2018-08-06T03:39:24.010Z,15.1
2018-08-06T03:40:31.221Z,15
2018-08-06T03:41:38.432Z,15
2018-08-06T03:42:45.091Z,15
2018-08-06T03:43:52.304Z,15
2018-08-06T03:44:59.724Z,15
2018-08-06T03:46:06.931Z,15
2018-08-06T03:47:14.144Z,15
2018-08-06T03:48:21.353Z,15
2018-08-06T03:49:28.564Z,15.1
2018-08-06T03:50:35.773Z,15.1
2018-08-06T03:51:42.987Z,15.1
2018-08-06T03:52:50.003Z,15.1
2018-08-06T03:53:57.409Z,15.2
2018-08-06T03:55:04.639Z,15.2
2018-08-06T03:56:11.830Z,15.2
2018-08-06T03:57:19.039Z,15.2
2018-08-06T03:58:26.249Z,15.2
2018-08-06T03:59:33.458Z,15.2
2018-08-06T04:00:40.666Z,15.3
2018-08-06T04:01:47.877Z,15.3
2018-08-06T04:02:55.085Z,15.3
2018-08-06T04:04:02.294Z,15.3
2018-08-06T04:05:09.510Z,15.3
2018-08-06T04:06:16.720Z,15.3
2018-08-06T04:07:23.927Z,15.3
2018-08-06T04:08:31.139Z,15.4
2018-08-06T04:09:38.353Z,15.4
2018-08-06T04:10:45.289Z,15.4
2018-08-06T04:11:52.496Z,15.4
2018-08-06T04:12:59.708Z,15.4
2018-08-06T04:14:06.922Z,15.4
2018-08-06T04:15:14.133Z,15.4
2018-08-06T04:16:21.347Z,15.4
2018-08-06T04:17:28.548Z,15.4
2018-08-06T04:18:35.764Z,15.4
2018-08-06T04:19:43.131Z,15.3
2018-08-06T04:20:50.473Z,15.3
2018-08-06T04:21:57.677Z,15.3
2018-08-06T04:23:04.890Z,15.3
2018-08-06T04:24:12.100Z,15.3
2018-08-06T04:25:19.310Z,15.3
2018-08-06T04:26:26.515Z,15.3
2018-08-06T04:27:33.725Z,15.3
2018-08-06T04:28:40.937Z,15.3
2018-08-06T04:29:48.145Z,15.3
2018-08-06T04:30:55.352Z,15.3
2018-08-06T04:32:02.564Z,15.3
2018-08-06T04:33:09.699Z,15.2
2018-08-06T04:34:17.076Z,15.3
2018-08-06T04:35:24.271Z,15.2
2018-08-06T04:36:31.484Z,15.3
2018-08-06T04:37:38.694Z,15.3
2018-08-06T04:38:45.897Z,15.3
2018-08-06T04:39:53.118Z,15.3
2018-08-06T04:41:00.332Z,15.3
2018-08-06T04:42:07.546Z,15.3
2018-08-06T04:43:14.755Z,15.2
2018-08-06T04:44:21.967Z,15.3
2018-08-06T04:45:28.900Z,15.2
2018-08-06T04:46:36.120Z,15.3
2018-08-06T04:47:43.328Z,15.3
2018-08-06T04:48:50.539Z,15.3
2018-08-06T04:49:57.753Z,15.2
2018-08-06T04:51:04.972Z,15.2
2018-08-06T04:52:12.183Z,15.3
2018-08-06T04:53:19.394Z,15.3
2018-08-06T04:54:26.339Z,15.3
2018-08-06T04:55:33.552Z,15.3
2018-08-06T04:56:40.767Z,15.3
2018-08-06T04:57:47.987Z,15.3
2018-08-06T04:58:55.195Z,15.4
2018-08-06T05:00:02.405Z,15.4
2018-08-06T05:01:09.617Z,15.4
2018-08-06T05:02:16.829Z,15.4
2018-08-06T05:03:24.039Z,15.4
2018-08-06T05:04:31.249Z,15.4
2018-08-06T05:05:38.458Z,15.4
2018-08-06T05:06:45.667Z,15.4
2018-08-06T05:07:52.876Z,15.4
2018-08-06T05:09:00.083Z,15.3
2018-08-06T05:10:07.298Z,15.3
2018-08-06T05:11:14.507Z,15.3
2018-08-06T05:12:21.717Z,15.4
2018-08-06T05:13:28.927Z,15.4
2018-08-06T05:14:36.135Z,15.5
2018-08-06T05:15:43.347Z,15.5
2018-08-06T05:16:50.559Z,15.5
2018-08-06T05:17:57.491Z,15.6
2018-08-06T05:19:04.434Z,15.6
2018-08-06T05:20:11.647Z,15.7
2018-08-06T05:21:18.856Z,15.7
2018-08-06T05:22:26.068Z,15.7
2018-08-06T05:23:33.277Z,15.7
2018-08-06T05:24:40.506Z,15.7
2018-08-06T05:25:47.811Z,15.8
2018-08-06T05:26:55.018Z,15.8
2018-08-06T05:28:02.236Z,15.8
2018-08-06T05:29:09.442Z,15.8
2018-08-06T05:30:16.678Z,15.8
2018-08-06T05:31:24.019Z,15.8
2018-08-06T05:32:31.259Z,15.8
2018-08-06T05:33:38.472Z,15.9
2018-08-06T05:34:45.680Z,15.9
2018-08-06T05:35:52.891Z,15.9
2018-08-06T05:37:00.101Z,15.9
2018-08-06T05:38:07.313Z,16
2018-08-06T05:39:14.522Z,16
2018-08-06T05:40:21.736Z,16.1
2018-08-06T05:41:28.948Z,16.2
2018-08-06T05:42:35.879Z,16.4
2018-08-06T05:43:43.087Z,16.5
2018-08-06T05:44:50.030Z,16.6
2018-08-06T05:45:57.234Z,16.6
2018-08-06T05:47:04.170Z,16.7
2018-08-06T05:48:11.448Z,16.8
2018-08-06T05:49:18.665Z,16.9
2018-08-06T05:50:25.878Z,17
2018-08-06T05:51:33.092Z,17.1
2018-08-06T05:52:40.306Z,17.1
2018-08-06T05:53:47.515Z,17.3
2018-08-06T05:54:54.730Z,17.3
2018-08-06T05:56:01.946Z,17.4
2018-08-06T05:57:09.159Z,17.5
2018-08-06T05:58:16.487Z,17.6
2018-08-06T05:59:23.783Z,17.7
2018-08-06T06:00:30.993Z,17.8
2018-08-06T06:01:38.205Z,17.9
2018-08-06T06:02:45.414Z,18.1
2018-08-06T06:03:52.624Z,18.2
2018-08-06T06:04:59.835Z,18.3
2018-08-06T06:06:07.050Z,18.5
2018-08-06T06:07:14.266Z,18.6
2018-08-06T06:08:21.198Z,18.8
2018-08-06T06:09:28.414Z,18.9
2018-08-06T06:10:35.627Z,19
2018-08-06T06:11:42.842Z,19.1
2018-08-06T06:12:50.048Z,19.2
2018-08-06T06:13:57.260Z,19.4
2018-08-06T06:15:04.517Z,19.6
2018-08-06T06:16:11.733Z,19.8
2018-08-06T06:17:18.943Z,19.9
2018-08-06T06:18:26.151Z,20
2018-08-06T06:19:33.367Z,20.2
2018-08-06T06:20:40.576Z,20.4
2018-08-06T06:21:47.791Z,20.6
2018-08-06T06:22:55.003Z,20.7
2018-08-06T06:24:02.221Z,20.9
2018-08-06T06:25:09.434Z,21
2018-08-06T06:26:16.640Z,21.3
2018-08-06T06:27:23.853Z,21.3
2018-08-06T06:28:31.131Z,21.4
2018-08-06T06:29:38.418Z,21.6
2018-08-06T06:30:45.632Z,21.8
2018-08-06T06:31:52.848Z,21.9
2018-08-06T06:33:00.056Z,21.9
2018-08-06T06:34:07.271Z,21.8
2018-08-06T06:35:14.219Z,22
2018-08-06T06:36:21.152Z,22.2
2018-08-06T06:37:28.363Z,22.4
2018-08-06T06:38:35.578Z,22.6
2018-08-06T06:39:42.823Z,22.7
2018-08-06T06:40:50.039Z,22.7
2018-08-06T06:41:57.488Z,22.9
2018-08-06T06:43:04.702Z,23
2018-08-06T06:44:11.913Z,23
2018-08-06T06:45:19.128Z,23
2018-08-06T06:46:26.348Z,23.1
2018-08-06T06:47:33.564Z,23.2
2018-08-06T06:48:40.780Z,23.2
2018-08-06T06:49:48.083Z,23.2
2018-08-06T06:50:55.293Z,23.2
2018-08-06T06:52:02.515Z,23.4
2018-08-06T06:53:09.475Z,23.5
2018-08-06T06:54:16.732Z,23.6
2018-08-06T06:55:24.062Z,23.7
2018-08-06T06:56:31.282Z,23.8
2018-08-06T06:57:38.492Z,23.9
2018-08-06T06:58:45.707Z,24.1
2018-08-06T06:59:53.024Z,24.2
2018-08-06T07:01:00.291Z,24.3
2018-08-06T07:02:07.227Z,24.3
2018-08-06T07:03:14.442Z,24.5
2018-08-06T07:04:21.652Z,24.8
2018-08-06T07:05:28.866Z,25.2
2018-08-06T07:06:36.092Z,25.1
2018-08-06T07:07:43.304Z,24.9
2018-08-06T07:08:50.520Z,25
2018-08-06T07:09:57.737Z,25.2
2018-08-06T07:11:04.673Z,25.4
2018-08-06T07:12:11.897Z,25.5
2018-08-06T07:13:18.838Z,25.2
2018-08-06T07:14:25.786Z,25.2
2018-08-06T07:15:33.005Z,25.4
2018-08-06T07:16:40.217Z,25.4
2018-08-06T07:17:47.160Z,25.5
2018-08-06T07:18:54.372Z,25.5
2018-08-06T07:20:01.589Z,25.4
2018-08-06T07:21:08.529Z,25.5
2018-08-06T07:22:15.741Z,25.6
2018-08-06T07:23:22.963Z,25.9
2018-08-06T07:24:30.176Z,26
2018-08-06T07:25:37.396Z,26
2018-08-06T07:26:44.608Z,25.8
2018-08-06T07:27:51.824Z,25.9
2018-08-06T07:28:59.040Z,26.1
2018-08-06T07:30:06.273Z,25.7
2018-08-06T07:31:13.198Z,25.9
2018-08-06T07:32:20.147Z,25.8
2018-08-06T07:33:27.359Z,25.9
2018-08-06T07:34:34.308Z,26
2018-08-06T07:35:41.526Z,26.2
2018-08-06T07:36:48.752Z,26.4
2018-08-06T07:37:55.698Z,26.4
2018-08-06T07:39:02.924Z,26.5
2018-08-06T07:40:10.293Z,26.5
2018-08-06T07:41:17.594Z,26.4
2018-08-06T07:42:24.815Z,26.7
2018-08-06T07:43:31.776Z,26.7
2018-08-06T07:44:38.985Z,26.5
2018-08-06T07:45:46.202Z,26.5
2018-08-06T07:46:53.419Z,26.6
2018-08-06T07:48:00.696Z,26.7
2018-08-06T07:49:07.703Z,27
2018-08-06T07:50:14.924Z,27.4
2018-08-06T07:51:22.142Z,27.6
2018-08-06T07:52:29.358Z,27.5
2018-08-06T07:53:36.575Z,27.3
2018-08-06T07:54:43.784Z,27.4
2018-08-06T07:55:50.999Z,27.5
2018-08-06T07:56:58.212Z,27.5
2018-08-06T07:58:05.434Z,27.5
2018-08-06T07:59:12.656Z,27.6
2018-08-06T08:00:19.880Z,27.4
2018-08-06T08:01:27.094Z,27.4
2018-08-06T08:02:34.308Z,27.4
2018-08-06T08:03:41.531Z,27.6
2018-08-06T08:04:48.750Z,27.6
2018-08-06T08:05:55.969Z,27.7
2018-08-06T08:07:03.196Z,28
2018-08-06T08:08:10.417Z,28.1
2018-08-06T08:09:17.367Z,27.9
2018-08-06T08:10:24.582Z,27.9
2018-08-06T08:11:31.804Z,28.1
2018-08-06T08:12:39.021Z,28.1
2018-08-06T08:13:46.239Z,27.6
2018-08-06T08:14:53.558Z,27.5
2018-08-06T08:16:00.808Z,27.6
2018-08-06T08:17:07.750Z,27.7
2018-08-06T08:18:14.964Z,27.9
2018-08-06T08:19:22.444Z,28.2
2018-08-06T08:20:29.714Z,28.4
2018-08-06T08:21:36.653Z,28.6
2018-08-06T08:22:43.870Z,28.5
2018-08-06T08:23:51.093Z,28.3
2018-08-06T08:24:58.046Z,28.2
2018-08-06T08:26:05.267Z,28
2018-08-06T08:27:12.482Z,27.7
2018-08-06T08:28:19.716Z,28.1
2018-08-06T08:29:26.926Z,28.5
2018-08-06T08:30:34.146Z,28.8
2018-08-06T08:31:41.368Z,28.9
2018-08-06T08:32:48.593Z,28.9
2018-08-06T08:33:55.850Z,28.9
2018-08-06T08:35:03.248Z,28.7
2018-08-06T08:36:10.192Z,28.7
2018-08-06T08:37:17.412Z,28.4
2018-08-06T08:38:24.627Z,28.4
2018-08-06T08:39:31.892Z,28.5
2018-08-06T08:40:39.219Z,28.5
2018-08-06T08:41:46.440Z,28.8
2018-08-06T08:42:53.368Z,28.8
2018-08-06T08:44:00.585Z,29
2018-08-06T08:45:07.810Z,29.2
2018-08-06T08:46:15.024Z,29.7
2018-08-06T08:47:21.967Z,29.6
2018-08-06T08:48:28.904Z,29.4
2018-08-06T08:49:36.129Z,29.8
2018-08-06T08:50:43.342Z,29.9
2018-08-06T08:51:50.559Z,30
2018-08-06T08:52:57.774Z,29.7
2018-08-06T08:54:04.986Z,29.2
2018-08-06T08:55:12.203Z,28.8
2018-08-06T08:56:19.424Z,29.1
2018-08-06T08:57:26.640Z,29.5
2018-08-06T08:58:33.985Z,29.6
2018-08-06T08:59:41.397Z,29.8
2018-08-06T09:00:48.617Z,29.9
2018-08-06T09:01:55.845Z,30
2018-08-06T09:03:02.783Z,30.2
2018-08-06T09:04:10.007Z,30.3
2018-08-06T09:05:17.225Z,30.1
2018-08-06T09:06:24.445Z,30.1
2018-08-06T09:07:31.386Z,30.1
2018-08-06T09:08:38.602Z,30.1
2018-08-06T09:09:45.823Z,30.1
2018-08-06T09:10:52.771Z,29.8
2018-08-06T09:11:59.991Z,30
2018-08-06T09:13:06.942Z,30.2
2018-08-06T09:14:14.157Z,30.6
2018-08-06T09:15:21.375Z,30.6
2018-08-06T09:16:28.603Z,30.6
2018-08-06T09:17:35.821Z,30.7
2018-08-06T09:18:43.036Z,30.2
2018-08-06T09:19:50.252Z,30.3
2018-08-06T09:20:57.468Z,30.3
2018-08-06T09:22:04.685Z,30.1
2018-08-06T09:23:11.905Z,29.8
2018-08-06T09:24:19.157Z,29.8
2018-08-06T09:25:26.374Z,29.2
2018-08-06T09:26:33.595Z,28.8
2018-08-06T09:27:40.846Z,29
2018-08-06T09:28:48.052Z,29.5
2018-08-06T09:29:55.268Z,30.1
2018-08-06T09:31:02.484Z,30.6
2018-08-06T09:32:09.159Z,31
2018-08-06T09:33:16.374Z,31.1
2018-08-06T09:34:23.597Z,31
2018-08-06T09:35:30.819Z,31
2018-08-06T09:36:38.052Z,30.8
2018-08-06T09:37:45.278Z,30.7
2018-08-06T09:38:52.498Z,30.7
2018-08-06T09:39:59.716Z,30.7
2018-08-06T09:41:06.935Z,30.7
2018-08-06T09:42:14.154Z,30.6
2018-08-06T09:43:21.369Z,30.4
2018-08-06T09:44:28.600Z,30.5
2018-08-06T09:45:35.836Z,30.8
2018-08-06T09:46:43.050Z,31.2
2018-08-06T09:47:50.275Z,31.6
2018-08-06T09:48:57.488Z,32.1
2018-08-06T09:50:04.709Z,32.5
2018-08-06T09:51:11.930Z,32.8
2018-08-06T09:52:19.151Z,33
2018-08-06T09:53:26.376Z,33
2018-08-06T09:54:33.589Z,32.8
2018-08-06T09:55:40.263Z,32.7
2018-08-06T09:56:47.478Z,32.7
2018-08-06T09:57:54.707Z,31.4
2018-08-06T09:59:01.926Z,30.8
2018-08-06T10:00:09.149Z,30.4
2018-08-06T10:01:16.363Z,30.8
2018-08-06T10:02:23.582Z,31.1
2018-08-06T10:03:30.805Z,31.3
2018-08-06T10:04:38.024Z,31.1
2018-08-06T10:05:45.616Z,31.4
2018-08-06T10:06:53.204Z,31.5
2018-08-06T10:08:00.148Z,31.5
2018-08-06T10:09:07.377Z,31.6
2018-08-06T10:10:14.593Z,31.6
2018-08-06T10:11:21.547Z,31.8
2018-08-06T10:12:28.761Z,31.6
2018-08-06T10:13:35.981Z,31.5
2018-08-06T10:14:43.198Z,31.8
2018-08-06T10:15:50.424Z,31.7
2018-08-06T10:16:57.645Z,31.8
2018-08-06T10:18:04.867Z,32.2
2018-08-06T10:19:12.316Z,32.8
2018-08-06T10:20:20.109Z,33
2018-08-06T10:21:27.334Z,33.2
2018-08-06T10:22:34.550Z,33.3
2018-08-06T10:23:41.774Z,33.3
2018-08-06T10:24:48.992Z,33.1
2018-08-06T10:25:56.207Z,33
2018-08-06T10:27:03.430Z,32.6
2018-08-06T10:28:10.652Z,32.4
2018-08-06T10:29:17.603Z,32.4
2018-08-06T10:30:25.071Z,32.3
2018-08-06T10:31:32.714Z,32.6
2018-08-06T10:32:39.937Z,33.3
2018-08-06T10:33:47.163Z,33.9
2018-08-06T10:34:54.382Z,34.4
2018-08-06T10:36:01.330Z,34.6
2018-08-06T10:37:08.272Z,34.3
2018-08-06T10:38:15.496Z,34.5
2018-08-06T10:39:22.438Z,34.4
2018-08-06T10:40:29.813Z,34.2
2018-08-06T10:41:37.331Z,33.8
2018-08-06T10:42:44.556Z,33.5
2018-08-06T10:43:51.778Z,33.2
2018-08-06T10:44:59.000Z,33.3
2018-08-06T10:46:06.229Z,33.5
2018-08-06T10:47:13.447Z,33
2018-08-06T10:48:20.900Z,32.5
2018-08-06T10:49:28.372Z,32.5
2018-08-06T10:50:35.590Z,32.8
2018-08-06T10:51:42.817Z,33
2018-08-06T10:52:50.038Z,33.5
2018-08-06T10:53:57.366Z,33.4
2018-08-06T10:55:04.678Z,33.3
2018-08-06T10:56:11.625Z,33.4
2018-08-06T10:57:18.849Z,33.8
2018-08-06T10:58:26.082Z,33.9
2018-08-06T10:59:33.373Z,33.2
2018-08-06T11:00:40.697Z,31.8
2018-08-06T11:01:47.921Z,31.8
2018-08-06T11:02:54.977Z,32.2
2018-08-06T11:04:02.068Z,32.8
2018-08-06T11:05:09.286Z,32.8
2018-08-06T11:06:16.506Z,32.6
2018-08-06T11:07:23.730Z,32.4
2018-08-06T11:08:30.678Z,31.9
2018-08-06T11:09:37.898Z,31
2018-08-06T11:10:45.125Z,31
2018-08-06T11:11:52.346Z,31.3
2018-08-06T11:12:59.309Z,31.9
2018-08-06T11:14:06.664Z,32.5
2018-08-06T11:15:14.030Z,33.2
2018-08-06T11:16:21.248Z,33.5
2018-08-06T11:17:28.469Z,34
2018-08-06T11:18:35.689Z,34.4
2018-08-06T11:19:42.911Z,34.4
2018-08-06T11:20:50.137Z,34.1
2018-08-06T11:21:57.358Z,34.1
2018-08-06T11:23:04.587Z,33.9
2018-08-06T11:24:11.536Z,33.9
2018-08-06T11:25:18.759Z,33.8
2018-08-06T11:26:25.982Z,34.3
2018-08-06T11:27:33.217Z,34.6
2018-08-06T11:28:40.443Z,34.9
2018-08-06T11:29:47.679Z,35.2
2018-08-06T11:30:54.898Z,35.4
2018-08-06T11:32:01.844Z,35.7
2018-08-06T11:33:08.795Z,35.9
2018-08-06T11:34:16.013Z,35.3
2018-08-06T11:35:23.235Z,34.9
2018-08-06T11:36:30.464Z,34.4
2018-08-06T11:37:37.683Z,34.4
2018-08-06T11:38:44.906Z,34.4
2018-08-06T11:39:52.127Z,33.2
2018-08-06T11:40:59.344Z,32.9
2018-08-06T11:42:06.560Z,33.2
2018-08-06T11:43:13.790Z,33.5
2018-08-06T11:44:21.013Z,33.6
2018-08-06T11:45:28.234Z,33.6
2018-08-06T11:46:35.452Z,33.3
2018-08-06T11:47:42.674Z,33.3
2018-08-06T11:48:49.982Z,33.5
2018-08-06T11:49:57.085Z,33.6
2018-08-06T11:51:04.326Z,33.9
2018-08-06T11:52:11.548Z,34.3
2018-08-06T11:53:18.774Z,34.5
2018-08-06T11:54:25.996Z,34.7
2018-08-06T11:55:32.945Z,35.3
2018-08-06T11:56:40.452Z,35.3
2018-08-06T11:57:48.015Z,34.6
2018-08-06T11:58:55.235Z,34.1
2018-08-06T12:00:02.455Z,34.5
2018-08-06T12:01:09.679Z,34.9
2018-08-06T12:02:16.898Z,35.2
2018-08-06T12:03:24.125Z,35.3
2018-08-06T12:04:31.347Z,35.7
2018-08-06T12:05:38.616Z,36
2018-08-06T12:06:45.896Z,36.1
2018-08-06T12:07:52.846Z,36.3
2018-08-06T12:09:00.068Z,36.3
2018-08-06T12:10:07.286Z,36.7
2018-08-06T12:11:14.508Z,37.1
2018-08-06T12:12:21.455Z,37.1
2018-08-06T12:13:28.681Z,37.1
2018-08-06T12:14:35.903Z,36.3
2018-08-06T12:15:43.132Z,36
2018-08-06T12:16:50.078Z,36.1
2018-08-06T12:17:57.300Z,36.3
2018-08-06T12:19:04.255Z,36.5
2018-08-06T12:20:11.491Z,36.7
2018-08-06T12:21:18.705Z,37.1
2018-08-06T12:22:25.648Z,37
2018-08-06T12:23:32.913Z,36.9
2018-08-06T12:24:40.208Z,36.7
2018-08-06T12:25:47.543Z,37
2018-08-06T12:26:54.878Z,37.2
2018-08-06T12:28:02.110Z,37.4
2018-08-06T12:29:09.339Z,37.2
2018-08-06T12:30:16.296Z,37.1
2018-08-06T12:31:23.519Z,36.1
2018-08-06T12:32:30.860Z,36.3
2018-08-06T12:33:38.088Z,36.1
2018-08-06T12:34:45.380Z,35.8
2018-08-06T12:35:52.598Z,35.7
2018-08-06T12:36:59.823Z,36.1
2018-08-06T12:38:07.078Z,36.2
2018-08-06T12:39:14.371Z,35.8
2018-08-06T12:40:21.323Z,35.5
2018-08-06T12:41:28.544Z,35.4
2018-08-06T12:42:35.768Z,35.8
2018-08-06T12:43:42.986Z,35.8
2018-08-06T12:44:50.204Z,35.8
2018-08-06T12:45:57.426Z,36
2018-08-06T12:47:04.379Z,36.3
2018-08-06T12:48:11.614Z,36.8
2018-08-06T12:49:18.853Z,37.3
2018-08-06T12:50:26.094Z,37.4
2018-08-06T12:51:33.338Z,37.6
2018-08-06T12:52:40.589Z,37.6
2018-08-06T12:53:47.611Z,37.7
2018-08-06T12:54:54.840Z,37.9
2018-08-06T12:56:02.067Z,38
2018-08-06T12:57:09.440Z,37.9
2018-08-06T12:58:16.743Z,37.6
2018-08-06T12:59:23.963Z,37.2
2018-08-06T13:00:30.920Z,36.5
2018-08-06T13:01:38.143Z,35.7
2018-08-06T13:02:45.370Z,35.2
2018-08-06T13:03:52.592Z,35.4
2018-08-06T13:04:59.881Z,35.8
2018-08-06T13:06:07.233Z,36.5
2018-08-06T13:07:14.516Z,37.2
2018-08-06T13:08:21.743Z,37.5
2018-08-06T13:09:28.969Z,38
2018-08-06T13:10:36.198Z,38.2
2018-08-06T13:11:43.420Z,38.1
2018-08-06T13:12:50.368Z,38
2018-08-06T13:13:57.601Z,38
2018-08-06T13:15:04.826Z,37.5
2018-08-06T13:16:12.043Z,36.8
2018-08-06T13:17:18.990Z,36.8
2018-08-06T13:18:26.218Z,37.2
2018-08-06T13:19:33.445Z,37.5
2018-08-06T13:20:40.400Z,37.9
2018-08-06T13:21:47.628Z,38.1
2018-08-06T13:22:54.304Z,38.1
2018-08-06T13:24:01.536Z,37.7
2018-08-06T13:25:08.837Z,37.7
2018-08-06T13:26:16.081Z,37.5
2018-08-06T13:27:23.300Z,37.5
2018-08-06T13:28:30.534Z,37.5
2018-08-06T13:29:37.763Z,37.9
2018-08-06T13:30:44.716Z,38
2018-08-06T13:31:51.669Z,37.5
2018-08-06T13:32:58.890Z,37.3
2018-08-06T13:34:06.111Z,37.4
2018-08-06T13:35:13.067Z,37.5
2018-08-06T13:36:20.286Z,37.6
2018-08-06T13:37:26.965Z,38
2018-08-06T13:38:34.188Z,38
2018-08-06T13:39:41.423Z,37.9
2018-08-06T13:40:48.653Z,37.7
2018-08-06T13:41:55.607Z,37.6
2018-08-06T13:43:02.835Z,37.1
2018-08-06T13:44:10.062Z,36.8
2018-08-06T13:45:17.289Z,36.5
2018-08-06T13:46:24.547Z,36.2
2018-08-06T13:47:31.771Z,36
2018-08-06T13:48:38.997Z,36.1
2018-08-06T13:49:46.226Z,36.3
2018-08-06T13:50:53.461Z,36.6
2018-08-06T13:52:00.407Z,36.5
2018-08-06T13:53:07.832Z,36.6
2018-08-06T13:54:15.371Z,36.9
2018-08-06T13:55:22.594Z,37.3
2018-08-06T13:56:29.544Z,37.6
2018-08-06T13:57:36.763Z,37.9
2018-08-06T13:58:43.987Z,38.3
2018-08-06T13:59:51.212Z,38.5
2018-08-06T14:00:58.438Z,38.3
2018-08-06T14:02:05.663Z,38.3
2018-08-06T14:03:12.921Z,37.9
2018-08-06T14:04:20.171Z,37.6
2018-08-06T14:05:27.517Z,37.4
2018-08-06T14:06:34.923Z,37.5
2018-08-06T14:07:42.147Z,37.8
2018-08-06T14:08:49.373Z,38.1
2018-08-06T14:09:56.318Z,38.4
2018-08-06T14:11:03.548Z,38.4
2018-08-06T14:12:10.802Z,38.3
2018-08-06T14:13:18.023Z,38.4
2018-08-06T14:14:25.254Z,38.3
2018-08-06T14:15:32.470Z,38.2
2018-08-06T14:16:39.711Z,38.4
2018-08-06T14:17:46.670Z,38.7
2018-08-06T14:18:53.904Z,39
2018-08-06T14:20:01.124Z,39.1
2018-08-06T14:21:08.349Z,39.3
2018-08-06T14:22:15.579Z,39.4
2018-08-06T14:23:22.536Z,39.2
2018-08-06T14:24:29.762Z,38.6
2018-08-06T14:25:36.984Z,38.2
2018-08-06T14:26:44.210Z,37.9
2018-08-06T14:27:51.157Z,37.4
2018-08-06T14:28:58.380Z,37.5
2018-08-06T14:30:05.604Z,37.8
2018-08-06T14:31:12.825Z,37.9
2018-08-06T14:32:20.063Z,37.6
2018-08-06T14:33:27.292Z,37.1
2018-08-06T14:34:34.250Z,36.9
2018-08-06T14:35:41.477Z,37.1
2018-08-06T14:36:48.703Z,36.9
2018-08-06T14:37:55.929Z,37.5
2018-08-06T14:39:03.151Z,37.5
2018-08-06T14:40:10.098Z,37.5
2018-08-06T14:41:17.320Z,37.6
2018-08-06T14:42:24.552Z,37.9
2018-08-06T14:43:31.784Z,37.9
2018-08-06T14:44:39.007Z,38.1
2018-08-06T14:45:46.240Z,38.3
2018-08-06T14:46:53.461Z,37.6
2018-08-06T14:48:00.687Z,37.3
2018-08-06T14:49:07.913Z,37.2
2018-08-06T14:50:15.141Z,37.3
2018-08-06T14:51:22.359Z,37.6
2018-08-06T14:52:29.589Z,37.9
2018-08-06T14:53:36.547Z,37.8
2018-08-06T14:54:43.774Z,37.2
2018-08-06T14:55:50.996Z,37
2018-08-06T14:56:57.948Z,37.5
2018-08-06T14:58:05.174Z,38
2018-08-06T14:59:12.398Z,38.2